createdAt,value
2023-01-28T00:00:10.855Z,0.97
2023-01-28T00:02:40.055Z,0.83
2023-01-28T00:05:08.484Z,0.70
2023-01-28T00:07:35.987Z,0.73
2023-01-28T00:10:03.781Z,1.27
2023-01-28T00:12:31.301Z,0.93
2023-01-28T00:14:58.788Z,0.73
2023-01-28T00:17:26.504Z,0.90
2023-01-28T00:19:55.315Z,1.33
2023-01-28T00:22:22.886Z,1.17
2023-01-28T00:24:50.378Z,0.70
2023-01-28T00:27:17.886Z,0.80
2023-01-28T00:29:45.369Z,0.40
2023-01-28T00:32:13.688Z,0.60
2023-01-28T00:34:41.203Z,1.33
2023-01-28T00:37:10.561Z,0.80
2023-01-28T00:39:38.042Z,0.87
2023-01-28T00:42:05.784Z,3.83
2023-01-28T00:44:33.260Z,0.50
2023-01-28T00:47:03.774Z,1.10
2023-01-28T00:49:31.302Z,0.70
2023-01-28T00:51:58.820Z,0.80
2023-01-28T00:54:27.679Z,1.40
2023-01-28T00:56:55.398Z,0.50
2023-01-28T00:59:22.978Z,1.03
2023-01-28T01:01:51.079Z,0.63
2023-01-28T01:04:26.448Z,1.33
2023-01-28T01:06:54.351Z,0.50
2023-01-28T01:09:22.527Z,0.70
2023-01-28T01:11:51.374Z,1.70
2023-01-28T01:14:18.893Z,0.93
2023-01-28T01:16:46.605Z,0.67
2023-01-28T01:19:14.165Z,0.90
2023-01-28T01:21:43.810Z,0.67
2023-01-28T01:24:13.779Z,0.87
2023-01-28T01:26:41.306Z,0.80
2023-01-28T01:29:10.707Z,0.60
2023-01-28T01:31:38.291Z,1.00
2023-01-28T01:34:05.862Z,0.57
2023-01-28T01:36:33.424Z,0.70
2023-01-28T01:39:00.959Z,0.50
2023-01-28T01:41:30.879Z,1.50
2023-01-28T01:44:00.595Z,0.70
2023-01-28T01:46:36.282Z,1.10
2023-01-28T01:49:14.260Z,0.50
2023-01-28T01:51:42.732Z,0.63
2023-01-28T01:54:10.350Z,1.07
2023-01-28T01:56:42.355Z,0.93
2023-01-28T01:59:13.041Z,1.43
2023-01-28T02:01:42.820Z,0.87
2023-01-28T02:04:13.658Z,0.83
2023-01-28T02:06:42.736Z,0.80
2023-01-28T02:09:24.163Z,0.67
2023-01-28T02:11:54.249Z,0.70
2023-01-28T02:14:30.943Z,0.73
2023-01-28T02:17:01.436Z,0.60
2023-01-28T02:19:37.542Z,1.10
2023-01-28T02:22:22.940Z,0.73
2023-01-28T02:25:22.085Z,1.37
2023-01-28T02:28:07.863Z,0.47
2023-01-28T02:30:39.876Z,0.80
2023-01-28T02:33:12.502Z,0.63
2023-01-28T02:35:44.197Z,0.47
2023-01-28T02:38:17.472Z,0.60
2023-01-28T02:41:03.017Z,0.97
2023-01-28T02:43:34.666Z,0.60
2023-01-28T02:46:31.538Z,0.57
2023-01-28T02:48:59.980Z,0.60
2023-01-28T02:51:40.711Z,1.03
2023-01-28T02:54:13.360Z,0.90
2023-01-28T02:56:47.889Z,0.73
2023-01-28T02:59:34.110Z,0.73
2023-01-28T03:02:14.096Z,0.57
2023-01-28T03:04:48.610Z,1.10
2023-01-28T03:07:19.629Z,0.70
2023-01-28T03:09:48.623Z,0.67
2023-01-28T03:12:39.021Z,0.90
2023-01-28T03:15:29.283Z,0.60
2023-01-28T03:18:19.600Z,0.67
2023-01-28T03:21:09.777Z,1.40
2023-01-28T03:24:03.933Z,0.50
2023-01-28T03:26:55.406Z,0.53
2023-01-28T03:29:42.601Z,0.87
2023-01-28T03:32:32.216Z,0.57
2023-01-28T03:35:17.819Z,0.40
2023-01-28T03:37:45.596Z,0.73
2023-01-28T03:40:22.488Z,0.70
2023-01-28T03:42:52.216Z,2.80
2023-01-28T03:45:34.841Z,1.10
2023-01-28T03:48:06.431Z,0.67
2023-01-28T03:50:34.052Z,0.53
2023-01-28T03:53:13.562Z,1.00
2023-01-28T03:55:53.157Z,0.87
2023-01-28T03:58:22.701Z,0.40
2023-01-28T04:00:51.819Z,0.97
2023-01-28T04:03:22.054Z,0.67
2023-01-28T04:06:01.062Z,0.90
2023-01-28T04:08:46.053Z,0.70
2023-01-28T04:11:33.722Z,0.77
2023-01-28T04:14:03.830Z,0.63
2023-01-28T04:16:45.237Z,0.70
2023-01-28T04:19:14.499Z,0.50
2023-01-28T04:21:42.975Z,1.13
2023-01-28T04:24:11.116Z,1.17
2023-01-28T04:26:40.262Z,0.67
2023-01-28T04:29:08.171Z,0.40
2023-01-28T04:31:37.989Z,0.77
2023-01-28T04:34:36.988Z,0.80
2023-01-28T04:37:33.963Z,1.40
2023-01-28T04:40:20.150Z,0.80
2023-01-28T04:42:56.812Z,0.87
2023-01-28T04:45:32.428Z,1.17
2023-01-28T04:48:11.210Z,0.70
2023-01-28T04:51:02.036Z,0.80
2023-01-28T04:53:49.633Z,0.67
2023-01-28T04:56:25.733Z,1.03
2023-01-28T04:58:53.438Z,0.80
2023-01-28T05:01:21.011Z,0.63
2023-01-28T05:03:49.082Z,1.03
2023-01-28T05:06:24.807Z,1.10
2023-01-28T05:08:56.072Z,0.80
2023-01-28T05:11:23.731Z,0.80
2023-01-28T05:13:56.026Z,0.87
2023-01-28T05:16:24.186Z,0.80
2023-01-28T05:18:52.054Z,0.80
2023-01-28T05:21:21.245Z,0.80
2023-01-28T05:23:55.661Z,1.00
2023-01-28T05:26:23.217Z,0.80
2023-01-28T05:28:51.331Z,1.00
2023-01-28T05:31:18.963Z,1.23
2023-01-28T05:33:46.525Z,0.97
2023-01-28T05:36:15.501Z,1.13
2023-01-28T05:38:43.847Z,0.77
2023-01-28T05:41:12.897Z,1.23
2023-01-28T05:43:41.729Z,0.80
2023-01-28T05:46:29.157Z,0.73
2023-01-28T05:49:12.216Z,0.70
2023-01-28T05:51:55.231Z,0.50
2023-01-28T05:54:23.364Z,1.27
2023-01-28T05:56:52.672Z,0.63
2023-01-28T05:59:20.287Z,0.67
2023-01-28T06:01:50.382Z,2.00
2023-01-28T06:04:18.912Z,0.57
2023-01-28T06:06:46.747Z,0.50
2023-01-28T06:09:14.402Z,0.70
2023-01-28T06:11:42.029Z,0.37
2023-01-28T06:14:11.283Z,0.50
2023-01-28T06:16:52.345Z,0.50
2023-01-28T06:19:26.731Z,0.53
2023-01-28T06:21:54.306Z,0.67
2023-01-28T06:24:22.350Z,0.83
2023-01-28T06:26:50.003Z,0.77
2023-01-28T06:29:20.994Z,0.43
2023-01-28T06:31:48.700Z,0.30
2023-01-28T06:34:16.477Z,0.40
2023-01-28T06:36:44.133Z,0.50
2023-01-28T06:39:12.178Z,0.40
2023-01-28T06:41:39.826Z,0.83
2023-01-28T06:44:07.550Z,0.60
2023-01-28T06:46:36.522Z,0.60
2023-01-28T06:49:04.165Z,0.87
2023-01-28T06:51:31.810Z,0.43
2023-01-28T06:53:59.420Z,0.67
2023-01-28T06:56:27.028Z,0.60
2023-01-28T06:58:54.584Z,0.70
2023-01-28T07:01:22.331Z,0.70
2023-01-28T07:03:51.193Z,0.40
2023-01-28T07:06:18.880Z,0.40
2023-01-28T07:08:47.741Z,0.77
2023-01-28T07:11:15.583Z,0.40
2023-01-28T07:13:44.031Z,0.30
2023-01-28T07:16:11.833Z,0.30
2023-01-28T07:18:39.505Z,0.30
2023-01-28T07:21:08.432Z,0.43
2023-01-28T07:23:36.021Z,0.77
2023-01-28T07:26:04.116Z,0.10
2023-01-28T07:28:31.828Z,0.40
2023-01-28T07:30:59.508Z,0.30
2023-01-28T07:33:27.108Z,0.53
2023-01-28T07:35:54.693Z,0.40
2023-01-28T07:38:23.593Z,0.80
2023-01-28T07:40:51.158Z,0.60
2023-01-28T07:43:18.659Z,0.77
2023-01-28T07:45:48.550Z,0.33
2023-01-28T07:48:16.509Z,0.70
2023-01-28T07:50:44.061Z,0.73
2023-01-28T07:53:12.893Z,0.37
2023-01-28T07:55:42.028Z,0.73
2023-01-28T07:58:12.158Z,0.40
2023-01-28T08:00:40.112Z,0.30
2023-01-28T08:03:11.660Z,0.30
2023-01-28T08:05:43.352Z,0.50
2023-01-28T08:08:12.229Z,0.50
2023-01-28T08:10:40.312Z,0.47
2023-01-28T08:13:11.144Z,1.30
2023-01-28T08:15:39.097Z,0.77
2023-01-28T08:18:08.006Z,0.70
2023-01-28T08:20:36.228Z,1.40
2023-01-28T08:23:08.765Z,0.67
2023-01-28T08:25:36.866Z,0.83
2023-01-28T08:28:05.273Z,0.80
2023-01-28T08:30:35.386Z,0.47
2023-01-28T08:33:03.085Z,0.60
2023-01-28T08:35:30.916Z,0.70
2023-01-28T08:38:00.622Z,0.80
2023-01-28T08:40:28.560Z,0.37
2023-01-28T08:42:57.244Z,0.53
2023-01-28T08:45:28.045Z,0.50
2023-01-28T08:47:58.676Z,0.43
2023-01-28T08:50:29.486Z,0.43
2023-01-28T08:52:59.329Z,0.57
2023-01-28T08:55:28.664Z,1.53
2023-01-28T08:57:58.445Z,1.50
2023-01-28T09:00:26.470Z,1.70
2023-01-28T09:02:54.489Z,1.70
2023-01-28T09:05:23.612Z,1.00
2023-01-28T09:07:51.269Z,1.13
2023-01-28T09:10:20.455Z,1.13
2023-01-28T09:12:48.167Z,0.90
2023-01-28T09:15:16.033Z,1.00
2023-01-28T09:17:43.663Z,1.33
2023-01-28T09:20:13.638Z,1.10
2023-01-28T09:22:42.775Z,0.60
2023-01-28T09:25:10.678Z,0.93
2023-01-28T09:27:38.260Z,0.57
2023-01-28T09:30:07.180Z,0.97
2023-01-28T09:32:34.809Z,0.57
2023-01-28T09:35:02.315Z,0.43
2023-01-28T09:37:29.987Z,0.70
2023-01-28T09:39:58.832Z,0.70
2023-01-28T09:42:41.230Z,0.40
2023-01-28T09:45:16.200Z,0.60
2023-01-28T09:47:47.405Z,0.50
2023-01-28T09:50:18.648Z,0.60
2023-01-28T09:52:46.421Z,0.40
2023-01-28T09:55:23.723Z,0.30
2023-01-28T09:57:53.468Z,0.53
2023-01-28T10:00:23.839Z,0.97
2023-01-28T10:03:12.296Z,1.23
2023-01-28T10:05:51.971Z,0.63
2023-01-28T10:08:32.287Z,1.63
2023-01-28T10:11:11.861Z,1.37
2023-01-28T10:13:49.204Z,1.10
2023-01-28T10:16:25.369Z,0.97
2023-01-28T10:18:57.722Z,0.47
2023-01-28T10:21:29.437Z,1.77
2023-01-28T10:24:04.301Z,1.53
2023-01-28T10:26:36.515Z,1.80
2023-01-28T10:29:12.535Z,0.80
2023-01-28T10:31:46.505Z,0.70
2023-01-28T10:34:14.244Z,0.93
2023-01-28T10:36:41.853Z,0.67
2023-01-28T10:39:12.398Z,0.70
2023-01-28T10:41:52.036Z,0.93
2023-01-28T10:44:33.210Z,0.90
2023-01-28T10:47:04.582Z,0.73
2023-01-28T10:49:33.916Z,1.20
2023-01-28T10:52:12.328Z,1.17
2023-01-28T10:54:40.072Z,0.90
2023-01-28T10:57:14.524Z,1.23
2023-01-28T10:59:42.892Z,0.60
2023-01-28T11:02:27.963Z,0.90
2023-01-28T11:05:03.023Z,0.70
2023-01-28T11:07:30.647Z,1.70
2023-01-28T11:09:58.170Z,1.90
2023-01-28T11:12:29.324Z,0.83
2023-01-28T11:14:59.016Z,1.93
2023-01-28T11:17:29.226Z,1.53
2023-01-28T11:19:59.355Z,0.90
2023-01-28T11:22:33.813Z,0.90
2023-01-28T11:25:02.669Z,0.70
2023-01-28T11:27:33.647Z,1.23
2023-01-28T11:30:04.710Z,0.80
2023-01-28T11:32:32.607Z,1.10
2023-01-28T11:35:01.204Z,1.00
2023-01-28T11:37:29.800Z,1.33
2023-01-28T11:40:21.248Z,1.13
2023-01-28T11:42:52.698Z,1.40
2023-01-28T11:45:26.628Z,1.10
2023-01-28T11:48:15.397Z,1.47
2023-01-28T11:50:52.432Z,2.03
2023-01-28T11:53:47.233Z,1.00
2023-01-28T11:56:27.414Z,1.37
2023-01-28T11:59:04.640Z,1.20
2023-01-28T12:01:45.779Z,1.53
2023-01-28T12:04:29.826Z,1.40
2023-01-28T12:07:11.936Z,1.10
2023-01-28T12:09:50.378Z,1.00
2023-01-28T12:12:35.588Z,0.80
2023-01-28T12:15:37.307Z,0.70
2023-01-28T12:18:19.916Z,1.10
2023-01-28T12:20:58.420Z,0.73
2023-01-28T12:23:53.289Z,1.17
2023-01-28T12:26:27.813Z,0.80
2023-01-28T12:29:08.127Z,0.70
2023-01-28T12:31:52.466Z,0.90
2023-01-28T12:35:10.900Z,0.93
2023-01-28T12:37:55.055Z,0.43
2023-01-28T12:40:40.259Z,1.17
2023-01-28T12:43:15.733Z,2.07
2023-01-28T12:45:48.086Z,3.20
2023-01-28T12:48:23.757Z,2.10
2023-01-28T12:50:55.879Z,1.40
2023-01-28T12:53:30.755Z,1.83
2023-01-28T12:56:04.725Z,1.30
2023-01-28T12:58:40.169Z,1.40
2023-01-28T13:01:12.199Z,1.00
2023-01-28T13:03:44.602Z,1.27
2023-01-28T13:06:16.810Z,1.07
2023-01-28T13:08:44.354Z,1.13
2023-01-28T13:11:16.980Z,1.00
2023-01-28T13:13:47.276Z,0.70
2023-01-28T13:16:15.043Z,0.60
2023-01-28T13:18:51.631Z,0.97
2023-01-28T13:21:40.124Z,1.07
2023-01-28T13:24:33.588Z,0.60
2023-01-28T13:27:13.850Z,0.60
2023-01-28T13:29:41.459Z,0.70
2023-01-28T13:32:29.452Z,0.73
2023-01-28T13:35:03.877Z,0.60
2023-01-28T13:37:34.780Z,0.80
2023-01-28T13:40:21.137Z,1.30
2023-01-28T13:42:59.537Z,1.20
2023-01-28T13:45:27.985Z,1.20
2023-01-28T13:48:01.312Z,1.40
2023-01-28T13:50:38.906Z,1.07
2023-01-28T13:53:20.174Z,1.30
2023-01-28T13:55:49.713Z,1.20
2023-01-28T13:58:41.196Z,1.50
2023-01-28T14:01:49.994Z,2.13
2023-01-28T14:04:45.225Z,1.10
2023-01-28T14:07:27.390Z,1.40
2023-01-28T14:10:07.580Z,1.47
2023-01-28T14:13:03.501Z,1.53
2023-01-28T14:15:55.444Z,1.63
2023-01-28T14:18:28.411Z,1.30
2023-01-28T14:21:01.538Z,0.90
2023-01-28T14:23:32.563Z,1.20
2023-01-28T14:26:11.582Z,1.20
2023-01-28T14:28:46.745Z,0.83
2023-01-28T14:31:19.397Z,1.43
2023-01-28T14:33:47.911Z,1.47
2023-01-28T14:36:15.650Z,1.37
2023-01-28T14:38:45.906Z,1.17
2023-01-28T14:41:24.397Z,1.00
2023-01-28T14:43:52.469Z,0.83
2023-01-28T14:46:31.795Z,0.97
2023-01-28T14:49:12.965Z,0.70
2023-01-28T14:52:15.091Z,1.00
2023-01-28T14:54:56.773Z,2.00
2023-01-28T14:57:40.483Z,2.63
2023-01-28T15:00:20.272Z,1.60
2023-01-28T15:02:47.846Z,1.67
2023-01-28T15:05:18.578Z,1.83
2023-01-28T15:07:47.337Z,1.20
2023-01-28T15:10:20.413Z,1.50
2023-01-28T15:12:51.610Z,1.73
2023-01-28T15:15:26.705Z,1.17
2023-01-28T15:17:55.143Z,0.83
2023-01-28T15:20:24.913Z,1.20
2023-01-28T15:22:54.154Z,0.80
2023-01-28T15:25:27.403Z,0.60
2023-01-28T15:27:56.775Z,1.57
2023-01-28T15:30:27.414Z,0.80
2023-01-28T15:33:03.921Z,1.47
2023-01-28T15:35:32.244Z,1.47
2023-01-28T15:38:00.129Z,0.60
2023-01-28T15:40:31.279Z,1.30
2023-01-28T15:42:58.988Z,0.70
2023-01-28T15:45:33.942Z,0.80
2023-01-28T15:48:08.862Z,0.67
2023-01-28T15:50:38.275Z,0.93
2023-01-28T15:53:11.028Z,2.83
2023-01-28T15:55:42.253Z,2.93
2023-01-28T15:58:21.447Z,1.70
2023-01-28T16:00:50.435Z,1.40
2023-01-28T16:03:23.403Z,1.70
2023-01-28T16:05:58.278Z,2.13
2023-01-28T16:08:30.837Z,1.60
2023-01-28T16:10:59.824Z,1.30
2023-01-28T16:13:29.985Z,1.10
2023-01-28T16:15:58.612Z,1.57
2023-01-28T16:18:31.896Z,1.57
2023-01-28T16:21:00.566Z,1.10
2023-01-28T16:23:29.756Z,1.47
2023-01-28T16:26:03.447Z,2.20
2023-01-28T16:28:31.780Z,1.83
2023-01-28T16:31:00.296Z,1.97
2023-01-28T16:33:28.212Z,1.40
2023-01-28T16:36:07.731Z,1.83
2023-01-28T16:38:36.199Z,1.43
2023-01-28T16:41:05.144Z,2.57
2023-01-28T16:43:35.951Z,1.40
2023-01-28T16:46:06.757Z,1.20
2023-01-28T16:48:35.526Z,1.57
2023-01-28T16:51:03.050Z,1.60
2023-01-28T16:53:33.697Z,1.97
2023-01-28T16:56:01.300Z,2.67
2023-01-28T16:58:30.477Z,2.30
2023-01-28T17:00:58.085Z,1.57
2023-01-28T17:03:25.693Z,1.80
2023-01-28T17:05:53.288Z,1.60
2023-01-28T17:08:20.869Z,2.33
2023-01-28T17:10:53.018Z,2.53
2023-01-28T17:13:20.760Z,2.53
2023-01-28T17:15:49.649Z,2.67
2023-01-28T17:18:17.339Z,3.23
2023-01-28T17:20:44.977Z,2.10
2023-01-28T17:23:15.759Z,3.33
2023-01-28T17:25:44.144Z,3.10
2023-01-28T17:28:12.327Z,1.73
2023-01-28T17:30:41.577Z,2.00
2023-01-28T17:33:10.704Z,1.50
2023-01-28T17:35:38.453Z,2.07
2023-01-28T17:38:06.684Z,2.07
2023-01-28T17:40:34.196Z,1.30
2023-01-28T17:43:01.887Z,1.90
2023-01-28T17:45:32.154Z,1.53
2023-01-28T17:47:59.888Z,1.60
2023-01-28T17:50:28.824Z,1.70
2023-01-28T17:52:57.177Z,2.40
2023-01-28T17:55:25.430Z,1.63
2023-01-28T17:57:52.963Z,1.30
2023-01-28T18:00:22.396Z,2.53
2023-01-28T18:02:51.216Z,1.53
2023-01-28T18:05:19.221Z,1.80
2023-01-28T18:07:50.243Z,2.40
2023-01-28T18:10:18.815Z,3.23
2023-01-28T18:12:46.352Z,1.60
2023-01-28T18:15:14.144Z,2.00
2023-01-28T18:17:42.020Z,2.07
2023-01-28T18:20:10.964Z,1.37
2023-01-28T18:22:38.709Z,2.17
2023-01-28T18:25:08.338Z,1.67
2023-01-28T18:27:35.855Z,1.20
2023-01-28T18:30:03.393Z,1.77
2023-01-28T18:32:30.923Z,1.23
2023-01-28T18:34:58.588Z,1.87
2023-01-28T18:37:26.302Z,1.57
2023-01-28T18:39:54.215Z,1.13
2023-01-28T18:42:23.082Z,1.80
2023-01-28T18:44:50.766Z,1.40
2023-01-28T18:47:19.254Z,1.40
2023-01-28T18:49:46.783Z,1.97
2023-01-28T18:52:14.375Z,1.37
2023-01-28T18:54:41.909Z,2.37
2023-01-28T18:57:09.420Z,2.40
2023-01-28T18:59:38.323Z,1.63
2023-01-28T19:02:06.049Z,1.70
2023-01-28T19:04:33.609Z,1.63
2023-01-28T19:07:01.561Z,1.87
2023-01-28T19:09:29.050Z,1.60
2023-01-28T19:11:56.832Z,1.50
2023-01-28T19:14:24.351Z,1.30
2023-01-28T19:16:53.249Z,1.43
2023-01-28T19:19:21.564Z,1.90
2023-01-28T19:21:49.098Z,2.43
2023-01-28T19:24:16.669Z,2.20
2023-01-28T19:26:45.315Z,2.00
2023-01-28T19:29:15.641Z,2.23
2023-01-28T19:31:44.266Z,2.30
2023-01-28T19:34:13.314Z,3.53
2023-01-28T19:36:42.321Z,2.93
2023-01-28T19:39:12.265Z,2.80
2023-01-28T19:41:39.862Z,2.67
2023-01-28T19:44:07.517Z,3.40
2023-01-28T19:46:36.512Z,4.47
2023-01-28T19:49:05.923Z,4.47
2023-01-28T19:51:35.261Z,3.30
2023-01-28T19:54:02.886Z,4.97
2023-01-28T19:56:30.701Z,3.37
2023-01-28T19:58:58.234Z,3.67
2023-01-28T20:01:30.105Z,5.00
2023-01-28T20:03:59.924Z,5.13
2023-01-28T20:06:29.581Z,6.63
2023-01-28T20:09:02.591Z,6.17
2023-01-28T20:11:30.365Z,6.33
2023-01-28T20:13:58.024Z,6.13
2023-01-28T20:16:27.828Z,5.87
2023-01-28T20:18:57.259Z,6.40
2023-01-28T20:21:25.597Z,7.53
2023-01-28T20:23:55.067Z,6.67
2023-01-28T20:26:26.417Z,6.63
2023-01-28T20:28:53.993Z,7.13
2023-01-28T20:31:21.840Z,7.60
2023-01-28T20:33:49.417Z,7.70
2023-01-28T20:36:16.994Z,7.73
2023-01-28T20:38:46.305Z,8.07
2023-01-28T20:41:15.998Z,8.70
2023-01-28T20:43:46.559Z,7.10
2023-01-28T20:46:15.797Z,5.67
2023-01-28T20:48:44.000Z,6.47
2023-01-28T20:51:13.241Z,5.27
2023-01-28T20:53:41.256Z,4.97
2023-01-28T20:56:09.939Z,4.40
2023-01-28T20:58:37.734Z,4.93
2023-01-28T21:01:07.201Z,4.50
2023-01-28T21:03:34.957Z,4.43
2023-01-28T21:06:02.569Z,7.57
2023-01-28T21:08:30.114Z,5.23
2023-01-28T21:10:57.733Z,5.40
2023-01-28T21:13:25.273Z,6.13
2023-01-28T21:15:54.192Z,5.60
2023-01-28T21:18:23.542Z,4.80
2023-01-28T21:20:53.679Z,4.60
2023-01-28T21:23:23.331Z,3.83
2023-01-28T21:25:51.657Z,3.90
2023-01-28T21:28:19.785Z,4.70
2023-01-28T21:30:47.816Z,3.87
2023-01-28T21:33:15.365Z,4.13
2023-01-28T21:35:44.683Z,3.97
2023-01-28T21:38:12.440Z,4.23
2023-01-28T21:40:39.984Z,4.10
2023-01-28T21:43:07.738Z,4.63
2023-01-28T21:45:35.249Z,3.50
2023-01-28T21:48:02.786Z,3.43
2023-01-28T21:50:30.379Z,3.43
2023-01-28T21:52:59.246Z,4.43
2023-01-28T21:55:26.950Z,3.90
2023-01-28T21:58:14.464Z,3.27
2023-01-28T22:00:41.119Z,3.33
2023-01-28T22:03:08.828Z,3.30
2023-01-28T22:05:36.361Z,5.10
2023-01-28T22:08:05.468Z,4.23
2023-01-28T22:10:32.981Z,6.40
2023-01-28T22:13:00.597Z,3.67
2023-01-28T22:15:28.158Z,4.03
2023-01-28T22:17:55.686Z,4.60
2023-01-28T22:20:23.249Z,5.53
2023-01-28T22:22:50.882Z,4.87
2023-01-28T22:25:19.804Z,4.13
2023-01-28T22:27:47.316Z,5.77
2023-01-28T22:30:15.653Z,4.80
2023-01-28T22:32:43.759Z,5.00
2023-01-28T22:35:11.318Z,5.53
2023-01-28T22:37:38.879Z,6.13
2023-01-28T22:40:07.492Z,6.00
2023-01-28T22:42:36.395Z,6.33
2023-01-28T22:45:04.335Z,7.27
2023-01-28T22:47:31.872Z,8.03
2023-01-28T22:49:59.364Z,6.83
2023-01-28T22:52:26.891Z,7.83
2023-01-28T22:54:54.429Z,8.40
2023-01-28T22:57:21.959Z,9.03
2023-01-28T22:59:59.580Z,7.97
2023-01-28T23:02:27.853Z,8.13
2023-01-28T23:04:55.348Z,9.50
2023-01-28T23:07:22.935Z,9.70
2023-01-28T23:09:50.441Z,9.27
2023-01-28T23:12:18.010Z,8.53
2023-01-28T23:15:03.124Z,10.10
2023-01-28T23:17:49.581Z,9.97
2023-01-28T23:20:31.489Z,8.43
2023-01-28T23:23:16.758Z,9.77
2023-01-28T23:25:44.292Z,10.10
2023-01-28T23:28:11.898Z,7.77
2023-01-28T23:30:39.581Z,8.83
2023-01-28T23:33:08.565Z,8.37
2023-01-28T23:35:36.109Z,7.37
2023-01-28T23:38:03.786Z,9.07
2023-01-28T23:40:31.380Z,9.17
2023-01-28T23:42:59.165Z,7.70
2023-01-28T23:45:26.838Z,8.27
2023-01-28T23:47:54.629Z,8.37
2023-01-28T23:50:23.720Z,7.13
2023-01-28T23:52:51.278Z,8.53
2023-01-28T23:55:19.049Z,7.50
2023-01-28T23:57:46.608Z,6.80
